createdAt,value
2018-05-10T00:01:09.769Z,64.96
2018-05-10T00:03:38.287Z,65.16
2018-05-10T00:06:06.788Z,65.16
2018-05-10T00:08:35.284Z,65.37
2018-05-10T00:11:03.824Z,66.16
2018-05-10T00:13:32.328Z,67.62
2018-05-10T00:16:00.895Z,67.96
2018-05-10T00:18:29.376Z,68.11
2018-05-10T00:20:57.885Z,67.42
2018-05-10T00:23:26.393Z,67.60
2018-05-10T00:25:54.853Z,68.30
2018-05-10T00:28:23.379Z,68.02
2018-05-10T00:30:51.847Z,69.27
2018-05-10T00:33:20.376Z,70.86
2018-05-10T00:35:48.904Z,70.86
2018-05-10T00:38:17.365Z,70.93
2018-05-10T00:40:45.860Z,70.90
2018-05-10T00:43:14.368Z,71.41
2018-05-10T00:45:42.864Z,71.59
2018-05-10T00:48:11.350Z,70.42
2018-05-10T00:50:39.852Z,69.12
2018-05-10T00:53:08.372Z,68.75
2018-05-10T00:55:36.834Z,69.39
2018-05-10T00:58:05.367Z,70.34
2018-05-10T01:00:33.878Z,70.89
2018-05-10T01:03:02.385Z,70.65
2018-05-10T01:05:30.914Z,70.37
2018-05-10T01:07:59.422Z,71.30
2018-05-10T01:10:27.929Z,71.75
2018-05-10T01:12:56.405Z,72.46
2018-05-10T01:15:24.893Z,72.26
2018-05-10T01:17:53.436Z,72.21
2018-05-10T01:20:21.897Z,72.22
2018-05-10T01:22:50.400Z,72.35
2018-05-10T01:25:18.888Z,72.25
2018-05-10T01:27:47.456Z,72.30
2018-05-10T01:30:15.932Z,72.44
2018-05-10T01:32:44.397Z,71.72
2018-05-10T01:35:24.596Z,71.47
2018-05-10T01:37:53.048Z,72.34
2018-05-10T01:40:21.512Z,72.38
2018-05-10T01:42:50.056Z,72.54
2018-05-10T01:45:18.529Z,72.85
2018-05-10T01:47:47.006Z,72.62
2018-05-10T01:50:15.500Z,72.23
2018-05-10T01:52:43.981Z,72.53
2018-05-10T01:55:12.493Z,72.73
2018-05-10T01:57:41.009Z,72.84
2018-05-10T02:00:09.480Z,72.96
2018-05-10T02:02:37.973Z,72.70
2018-05-10T02:05:06.449Z,73.09
2018-05-10T02:07:34.944Z,73.10
2018-05-10T02:10:03.498Z,73.46
2018-05-10T02:12:32.037Z,71.01
2018-05-10T02:15:00.540Z,70.32
2018-05-10T02:17:29.075Z,71.51
2018-05-10T02:19:57.603Z,71.68
2018-05-10T02:22:26.065Z,71.60
2018-05-10T02:24:54.568Z,70.80
2018-05-10T02:27:23.035Z,70.73
2018-05-10T02:29:51.551Z,70.93
2018-05-10T02:32:20.073Z,70.89
2018-05-10T02:34:48.571Z,70.42
2018-05-10T02:37:17.095Z,69.72
2018-05-10T02:39:45.624Z,70.56
2018-05-10T02:42:14.106Z,69.70
2018-05-10T02:44:42.622Z,70.18
2018-05-10T02:47:11.145Z,70.59
2018-05-10T02:49:39.610Z,71.27
2018-05-10T02:52:08.104Z,71.23
2018-05-10T02:54:36.612Z,70.89
2018-05-10T02:57:05.124Z,71.11
2018-05-10T02:59:33.644Z,71.22
2018-05-10T03:02:02.084Z,71.05
2018-05-10T03:04:30.583Z,70.59
2018-05-10T03:06:59.113Z,70.95
2018-05-10T03:09:27.627Z,70.33
2018-05-10T03:11:56.118Z,70.25
2018-05-10T03:14:24.629Z,70.07
2018-05-10T03:16:53.136Z,70.77
2018-05-10T03:19:21.650Z,70.52
2018-05-10T03:21:50.181Z,71.15
2018-05-10T03:24:18.696Z,71.26
2018-05-10T03:26:47.205Z,70.78
2018-05-10T03:29:15.664Z,70.94
2018-05-10T03:31:44.161Z,71.09
2018-05-10T03:34:12.623Z,71.24
2018-05-10T03:36:41.147Z,71.67
2018-05-10T03:39:09.649Z,71.71
2018-05-10T03:41:38.190Z,71.43
2018-05-10T03:44:06.656Z,71.05
2018-05-10T03:46:35.107Z,70.08
2018-05-10T03:49:04.537Z,69.84
2018-05-10T03:51:33.012Z,69.88
2018-05-10T03:54:01.545Z,69.11
2018-05-10T03:56:30.027Z,68.94
2018-05-10T03:58:58.486Z,69.22
2018-05-10T04:01:27.021Z,69.03
2018-05-10T04:04:07.251Z,69.26
2018-05-10T04:06:47.569Z,68.07
2018-05-10T04:09:27.672Z,67.62
2018-05-10T04:11:56.183Z,67.20
2018-05-10T04:14:24.697Z,66.87
2018-05-10T04:16:53.214Z,67.32
2018-05-10T04:19:21.692Z,67.58
2018-05-10T04:21:50.196Z,66.95
2018-05-10T04:24:18.709Z,67.02
2018-05-10T04:26:47.238Z,66.87
2018-05-10T04:29:15.696Z,66.32
2018-05-10T04:31:44.213Z,68.13
2018-05-10T04:34:12.681Z,67.55
2018-05-10T04:36:41.184Z,66.66
2018-05-10T04:39:09.688Z,66.00
2018-05-10T04:41:38.200Z,65.09
2018-05-10T04:44:06.671Z,65.08
2018-05-10T04:46:35.165Z,65.11
2018-05-10T04:49:03.688Z,64.82
2018-05-10T04:51:32.144Z,64.98
2018-05-10T04:54:00.660Z,65.02
2018-05-10T04:56:29.169Z,65.13
2018-05-10T04:58:57.652Z,63.90
2018-05-10T05:01:26.130Z,63.19
2018-05-10T05:03:54.609Z,62.67
2018-05-10T05:06:23.124Z,61.75
2018-05-10T05:08:51.654Z,62.44
2018-05-10T05:11:20.133Z,61.89
2018-05-10T05:13:48.601Z,62.09
2018-05-10T05:16:17.097Z,61.81
2018-05-10T05:18:45.581Z,61.70
2018-05-10T05:21:14.101Z,60.99
2018-05-10T05:23:42.564Z,59.89
2018-05-10T05:26:11.041Z,60.81
2018-05-10T05:28:39.717Z,64.57
2018-05-10T05:31:08.248Z,65.10
2018-05-10T05:33:36.745Z,64.58
2018-05-10T05:36:05.213Z,65.74
2018-05-10T05:38:33.702Z,65.25
2018-05-10T05:41:02.446Z,64.52
2018-05-10T05:43:31.090Z,63.35
2018-05-10T05:45:59.521Z,63.61
2018-05-10T05:48:28.049Z,63.07
2018-05-10T05:50:56.529Z,62.24
2018-05-10T05:53:25.037Z,61.08
2018-05-10T05:55:53.549Z,61.41
2018-05-10T05:58:22.065Z,61.20
2018-05-10T06:00:50.614Z,59.18
2018-05-10T06:03:19.100Z,58.31
2018-05-10T06:05:47.580Z,58.74
2018-05-10T06:08:16.096Z,57.83
2018-05-10T06:10:44.577Z,57.14
2018-05-10T06:13:13.088Z,56.05
2018-05-10T06:15:41.819Z,56.31
2018-05-10T06:18:10.276Z,56.51
2018-05-10T06:20:38.736Z,56.53
2018-05-10T06:23:07.259Z,55.63
2018-05-10T06:25:35.728Z,55.52
2018-05-10T06:28:04.283Z,55.04
2018-05-10T06:30:32.772Z,53.60
2018-05-10T06:33:01.302Z,53.24
2018-05-10T06:35:29.817Z,52.24
2018-05-10T06:37:58.322Z,51.51
2018-05-10T06:40:26.876Z,52.77
2018-05-10T06:42:55.629Z,51.13
2018-05-10T06:45:24.105Z,50.95
2018-05-10T06:47:52.689Z,51.29
2018-05-10T06:50:21.180Z,51.05
2018-05-10T06:52:49.702Z,49.88
2018-05-10T06:55:18.278Z,50.65
2018-05-10T06:57:46.835Z,50.68
2018-05-10T07:00:15.382Z,51.27
2018-05-10T07:02:43.909Z,50.86
2018-05-10T07:05:12.380Z,49.74
2018-05-10T07:07:40.910Z,48.64
2018-05-10T07:10:09.365Z,48.68
2018-05-10T07:12:37.874Z,49.21
2018-05-10T07:15:06.364Z,48.09
2018-05-10T07:17:34.861Z,49.27
2018-05-10T07:20:03.392Z,49.14
2018-05-10T07:22:31.894Z,48.81
2018-05-10T07:25:00.430Z,49.49
2018-05-10T07:27:28.948Z,50.43
2018-05-10T07:29:57.452Z,51.14
2018-05-10T07:32:25.941Z,50.58
2018-05-10T07:34:54.441Z,50.89
2018-05-10T07:37:22.931Z,50.32
2018-05-10T07:39:51.476Z,50.14
2018-05-10T07:42:20.005Z,51.06
2018-05-10T07:44:48.584Z,50.83
2018-05-10T07:47:17.129Z,51.19
2018-05-10T07:49:45.641Z,51.10
2018-05-10T07:52:14.121Z,51.54
2018-05-10T07:54:42.636Z,52.69
2018-05-10T07:57:11.105Z,53.86
2018-05-10T07:59:39.596Z,53.60
2018-05-10T08:02:08.078Z,53.55
2018-05-10T08:04:36.622Z,54.15
2018-05-10T08:07:05.095Z,54.28
2018-05-10T08:09:33.601Z,54.37
2018-05-10T08:12:02.112Z,54.80
2018-05-10T08:14:30.579Z,54.06
2018-05-10T08:16:59.167Z,53.64
2018-05-10T08:19:27.625Z,52.89
2018-05-10T08:21:56.154Z,53.59
2018-05-10T08:24:24.657Z,53.14
2018-05-10T08:26:53.109Z,53.66
2018-05-10T08:29:21.625Z,53.38
2018-05-10T08:31:50.117Z,52.88
2018-05-10T08:34:18.656Z,53.28
2018-05-10T08:36:47.284Z,52.22
2018-05-10T08:39:15.748Z,51.86
2018-05-10T08:41:44.333Z,52.20
2018-05-10T08:44:12.800Z,52.52
2018-05-10T08:46:41.341Z,52.67
2018-05-10T08:49:09.920Z,52.11
2018-05-10T08:51:38.578Z,51.71
2018-05-10T08:54:07.048Z,51.30
2018-05-10T08:56:35.570Z,51.70
2018-05-10T08:59:04.083Z,51.66
2018-05-10T09:01:32.589Z,51.71
2018-05-10T09:04:01.088Z,51.22
2018-05-10T09:06:29.611Z,51.44
2018-05-10T09:08:58.090Z,50.99
2018-05-10T09:11:26.616Z,51.40
2018-05-10T09:13:55.092Z,51.63
2018-05-10T09:16:23.608Z,50.75
2018-05-10T09:18:52.094Z,49.99
2018-05-10T09:21:20.573Z,49.75
2018-05-10T09:23:49.064Z,49.93
2018-05-10T09:26:17.530Z,50.13
2018-05-10T09:28:46.094Z,49.49
2018-05-10T09:31:14.616Z,50.15
2018-05-10T09:33:43.135Z,49.33
2018-05-10T09:36:11.661Z,48.70
2018-05-10T09:38:40.184Z,48.82
2018-05-10T09:41:08.678Z,48.14
2018-05-10T09:43:37.161Z,48.05
2018-05-10T09:46:05.672Z,48.26
2018-05-10T09:48:34.232Z,46.99
2018-05-10T09:51:02.741Z,48.06
2018-05-10T09:53:31.224Z,46.43
2018-05-10T09:55:59.749Z,44.61
2018-05-10T09:58:28.236Z,44.43
2018-05-10T10:00:56.771Z,43.96
2018-05-10T10:03:25.262Z,44.76
2018-05-10T10:05:53.799Z,43.95
2018-05-10T10:08:22.294Z,43.90
2018-05-10T10:10:50.839Z,44.17
2018-05-10T10:13:19.356Z,44.34
2018-05-10T10:15:47.858Z,44.61
2018-05-10T10:18:16.370Z,45.66
2018-05-10T10:20:44.853Z,46.43
2018-05-10T10:23:13.328Z,47.89
2018-05-10T10:25:41.884Z,48.33
2018-05-10T10:28:10.409Z,47.53
2018-05-10T10:30:38.976Z,48.03
2018-05-10T10:33:07.460Z,50.66
2018-05-10T10:35:35.941Z,52.34
2018-05-10T10:38:04.545Z,51.80
2018-05-10T10:40:33.029Z,51.85
2018-05-10T10:43:01.560Z,50.93
2018-05-10T10:45:30.130Z,49.67
2018-05-10T10:47:58.550Z,50.96
2018-05-10T10:50:27.265Z,52.42
2018-05-10T10:52:55.863Z,52.13
2018-05-10T10:55:24.349Z,52.07
2018-05-10T10:57:52.830Z,56.29
2018-05-10T11:00:21.336Z,58.89
2018-05-10T11:02:49.871Z,63.05
2018-05-10T11:05:18.395Z,62.23
2018-05-10T11:07:46.869Z,62.61
2018-05-10T11:10:15.398Z,66.44
2018-05-10T11:12:43.881Z,65.66
2018-05-10T11:15:12.429Z,65.83
2018-05-10T11:17:40.890Z,64.79
2018-05-10T11:20:09.397Z,63.66
2018-05-10T11:22:37.935Z,65.27
2018-05-10T11:25:06.474Z,66.02
2018-05-10T11:27:34.977Z,66.02
2018-05-10T11:30:03.512Z,66.95
2018-05-10T11:32:32.060Z,66.81
2018-05-10T11:35:00.529Z,67.70
2018-05-10T11:37:29.077Z,65.58
2018-05-10T11:39:57.553Z,64.88
2018-05-10T11:42:26.028Z,64.09
2018-05-10T11:44:54.540Z,65.07
2018-05-10T11:47:23.016Z,65.72
2018-05-10T11:49:51.545Z,66.40
2018-05-10T11:52:20.063Z,66.55
2018-05-10T11:54:48.566Z,67.06
2018-05-10T11:57:17.077Z,70.34
2018-05-10T11:59:45.608Z,71.61
2018-05-10T12:02:14.135Z,71.50
2018-05-10T12:04:42.610Z,72.44
2018-05-10T12:07:11.108Z,72.58
2018-05-10T12:09:39.580Z,74.11
2018-05-10T12:12:08.097Z,72.90
2018-05-10T12:14:36.569Z,73.06
2018-05-10T12:17:05.085Z,72.97
2018-05-10T12:19:33.572Z,73.15
2018-05-10T12:22:02.064Z,72.95
2018-05-10T12:24:30.526Z,73.37
2018-05-10T12:26:59.028Z,74.61
2018-05-10T12:29:27.572Z,73.81
2018-05-10T12:31:56.085Z,74.06
2018-05-10T12:34:24.589Z,73.26
2018-05-10T12:36:53.102Z,72.84
2018-05-10T12:39:21.576Z,72.33
2018-05-10T12:41:50.070Z,71.47
2018-05-10T12:44:18.541Z,72.08
2018-05-10T12:46:47.041Z,71.38
2018-05-10T12:49:15.500Z,70.85
2018-05-10T12:51:44.045Z,70.64
2018-05-10T12:54:12.549Z,70.16
2018-05-10T12:56:41.064Z,69.66
2018-05-10T12:59:09.631Z,69.30
2018-05-10T13:01:38.206Z,68.97
2018-05-10T13:04:06.682Z,69.38
2018-05-10T13:06:35.177Z,69.96
2018-05-10T13:09:03.760Z,70.04
2018-05-10T13:11:32.268Z,69.65
2018-05-10T13:14:00.780Z,69.98
2018-05-10T13:16:29.272Z,69.69
2018-05-10T13:18:57.786Z,69.30
2018-05-10T13:21:26.297Z,69.35
2018-05-10T13:23:54.817Z,68.87
2018-05-10T13:26:23.296Z,69.71
2018-05-10T13:28:51.894Z,68.50
2018-05-10T13:31:20.324Z,67.89
2018-05-10T13:33:48.782Z,68.30
2018-05-10T13:36:17.266Z,66.92
2018-05-10T13:38:46.668Z,67.85
2018-05-10T13:41:15.191Z,68.31
2018-05-10T13:43:43.644Z,68.68
2018-05-10T13:46:12.169Z,68.77
2018-05-10T13:48:40.676Z,67.91
2018-05-10T13:51:09.195Z,67.17
2018-05-10T13:53:37.679Z,66.93
2018-05-10T13:56:06.180Z,65.34
2018-05-10T13:58:34.622Z,66.13
2018-05-10T14:01:03.167Z,67.38
2018-05-10T14:03:31.620Z,66.24
2018-05-10T14:06:00.113Z,67.16
2018-05-10T14:08:28.627Z,65.83
2018-05-10T14:10:57.096Z,65.28
2018-05-10T14:13:25.612Z,66.33
2018-05-10T14:15:54.089Z,66.19
2018-05-10T14:18:22.663Z,67.19
2018-05-10T14:20:51.184Z,67.46
2018-05-10T14:23:19.659Z,68.30
2018-05-10T14:25:48.177Z,67.41
2018-05-10T14:28:16.658Z,67.06
2018-05-10T14:30:45.194Z,67.49
2018-05-10T14:33:13.692Z,66.68
2018-05-10T14:35:42.224Z,66.18
2018-05-10T14:38:10.721Z,66.41
2018-05-10T14:40:39.213Z,66.35
2018-05-10T14:43:07.696Z,66.48
2018-05-10T14:45:36.174Z,66.09
2018-05-10T14:48:04.677Z,66.43
2018-05-10T14:50:33.133Z,67.24
2018-05-10T14:53:01.603Z,66.60
2018-05-10T14:55:30.119Z,66.81
2018-05-10T14:57:58.617Z,67.13
2018-05-10T15:00:27.117Z,66.86
2018-05-10T15:02:55.580Z,67.07
2018-05-10T15:05:24.042Z,66.18
2018-05-10T15:07:52.544Z,64.43
2018-05-10T15:10:21.079Z,64.89
2018-05-10T15:12:49.537Z,64.68
2018-05-10T15:15:18.067Z,64.88
2018-05-10T15:17:46.592Z,65.17
2018-05-10T15:20:15.037Z,65.67
2018-05-10T15:22:43.787Z,66.57
2018-05-10T15:25:12.358Z,66.30
2018-05-10T15:27:40.809Z,66.79
2018-05-10T15:30:09.305Z,66.16
2018-05-10T15:32:37.801Z,66.57
2018-05-10T15:35:06.253Z,66.69
2018-05-10T15:37:34.759Z,66.89
2018-05-10T15:40:03.253Z,66.17
2018-05-10T15:42:31.768Z,66.31
2018-05-10T15:45:00.236Z,64.44
2018-05-10T15:47:28.692Z,65.15
2018-05-10T15:49:57.277Z,65.14
2018-05-10T15:52:25.734Z,65.30
2018-05-10T15:54:54.220Z,65.42
2018-05-10T15:57:22.677Z,65.17
2018-05-10T15:59:51.176Z,65.49
2018-05-10T16:02:19.660Z,65.94
2018-05-10T16:04:48.108Z,66.81
2018-05-10T16:07:16.627Z,68.73
2018-05-10T16:09:45.075Z,67.97
2018-05-10T16:12:13.560Z,67.24
2018-05-10T16:14:42.081Z,67.26
2018-05-10T16:17:10.532Z,65.96
2018-05-10T16:19:39.041Z,65.70
2018-05-10T16:22:07.484Z,66.08
2018-05-10T16:24:35.944Z,66.24
2018-05-10T16:27:04.441Z,65.71
2018-05-10T16:29:32.932Z,65.93
2018-05-10T16:32:01.460Z,66.26
2018-05-10T16:34:29.969Z,66.53
2018-05-10T16:36:58.429Z,67.39
2018-05-10T16:39:26.959Z,67.71
2018-05-10T16:41:55.463Z,67.62
2018-05-10T16:44:23.944Z,67.73
2018-05-10T16:46:52.445Z,67.85
2018-05-10T16:49:20.913Z,68.94
2018-05-10T16:51:49.397Z,68.54
2018-05-10T16:54:17.863Z,68.49
2018-05-10T16:56:46.368Z,69.20
2018-05-10T16:59:14.832Z,70.53
2018-05-10T17:01:43.340Z,70.91
2018-05-10T17:04:11.813Z,70.57
2018-05-10T17:06:40.279Z,70.96
2018-05-10T17:09:08.764Z,70.67
2018-05-10T17:11:37.225Z,70.86
2018-05-10T17:14:05.728Z,70.41
2018-05-10T17:16:34.237Z,70.32
2018-05-10T17:19:02.704Z,70.35
2018-05-10T17:21:31.256Z,69.84
2018-05-10T17:23:59.729Z,69.67
2018-05-10T17:26:28.188Z,70.11
2018-05-10T17:28:56.682Z,70.40
2018-05-10T17:31:25.176Z,69.80
2018-05-10T17:33:53.621Z,69.66
2018-05-10T17:36:22.112Z,70.20
2018-05-10T17:38:50.623Z,69.72
2018-05-10T17:41:19.085Z,70.04
2018-05-10T17:43:47.577Z,70.29
2018-05-10T17:46:16.055Z,70.01
2018-05-10T17:48:44.548Z,70.02
2018-05-10T17:51:12.985Z,69.90
2018-05-10T17:53:41.485Z,70.15
2018-05-10T17:56:09.964Z,71.32
2018-05-10T17:58:38.419Z,70.71
2018-05-10T18:01:06.970Z,70.32
2018-05-10T18:03:35.444Z,69.88
2018-05-10T18:06:03.908Z,70.03
2018-05-10T18:08:32.436Z,70.07
2018-05-10T18:11:00.935Z,69.66
2018-05-10T18:13:29.405Z,69.80
2018-05-10T18:15:57.904Z,70.16
2018-05-10T18:18:26.360Z,69.81
2018-05-10T18:20:54.867Z,69.81
2018-05-10T18:23:23.347Z,69.55
2018-05-10T18:25:51.861Z,69.06
2018-05-10T18:28:20.364Z,68.46
2018-05-10T18:30:48.820Z,68.34
2018-05-10T18:33:17.303Z,68.65
2018-05-10T18:35:45.788Z,68.99
2018-05-10T18:38:14.226Z,68.71
2018-05-10T18:40:42.718Z,69.12
2018-05-10T18:43:11.233Z,68.86
2018-05-10T18:45:39.693Z,69.37
2018-05-10T18:48:08.174Z,69.05
2018-05-10T18:50:36.657Z,70.39
2018-05-10T18:53:05.164Z,71.03
2018-05-10T18:55:33.605Z,70.74
2018-05-10T18:58:02.042Z,71.04
2018-05-10T19:00:30.528Z,71.25
2018-05-10T19:02:59.009Z,70.92
2018-05-10T19:05:27.514Z,71.10
2018-05-10T19:07:55.961Z,71.22
2018-05-10T19:10:24.403Z,71.24
2018-05-10T19:12:52.885Z,71.45
2018-05-10T19:15:21.384Z,71.29
2018-05-10T19:17:49.848Z,71.39
2018-05-10T19:20:18.337Z,71.55
2018-05-10T19:22:46.761Z,71.58
2018-05-10T19:25:15.234Z,71.76
2018-05-10T19:27:43.717Z,72.09
2018-05-10T19:30:12.141Z,72.14
2018-05-10T19:32:40.612Z,72.53
2018-05-10T19:35:09.064Z,72.78
2018-05-10T19:37:37.533Z,72.87
2018-05-10T19:40:06.009Z,72.83
2018-05-10T19:42:34.512Z,72.92
2018-05-10T19:45:02.973Z,72.91
2018-05-10T19:47:31.410Z,72.87
2018-05-10T19:49:59.880Z,72.76
2018-05-10T19:52:28.364Z,72.95
2018-05-10T19:54:56.816Z,73.13
2018-05-10T19:57:25.292Z,73.23
2018-05-10T19:59:53.733Z,73.42
2018-05-10T20:02:22.212Z,73.67
2018-05-10T20:04:50.653Z,73.41
2018-05-10T20:07:19.151Z,73.28
2018-05-10T20:09:47.689Z,73.24
2018-05-10T20:12:16.142Z,73.00
2018-05-10T20:14:44.636Z,72.58
2018-05-10T20:17:13.124Z,72.99
2018-05-10T20:19:41.593Z,72.67
2018-05-10T20:22:10.041Z,72.21
2018-05-10T20:24:38.536Z,72.31
2018-05-10T20:27:07.005Z,72.38
2018-05-10T20:29:35.445Z,72.20
2018-05-10T20:32:03.940Z,72.02
2018-05-10T20:34:32.381Z,72.29
2018-05-10T20:37:00.856Z,72.31
2018-05-10T20:39:29.297Z,72.62
2018-05-10T20:41:57.789Z,72.36
2018-05-10T20:44:26.236Z,72.16
2018-05-10T20:46:54.713Z,71.81
2018-05-10T20:49:23.155Z,71.85
2018-05-10T20:51:51.642Z,72.23
2018-05-10T20:54:20.116Z,72.30
2018-05-10T20:56:48.585Z,71.99
2018-05-10T20:59:17.060Z,72.12
2018-05-10T21:01:45.517Z,72.64
2018-05-10T21:04:14.071Z,72.79
2018-05-10T21:06:42.479Z,72.66
2018-05-10T21:09:10.976Z,73.00
2018-05-10T21:11:39.447Z,73.06
2018-05-10T21:14:07.884Z,72.71
2018-05-10T21:16:36.368Z,73.19
2018-05-10T21:19:04.820Z,72.69
2018-05-10T21:21:33.420Z,72.75
2018-05-10T21:24:01.905Z,72.73
2018-05-10T21:26:30.356Z,72.50
2018-05-10T21:28:58.898Z,72.20
2018-05-10T21:31:27.396Z,71.54
2018-05-10T21:33:55.921Z,71.46
2018-05-10T21:36:24.377Z,71.53
2018-05-10T21:38:52.887Z,71.73
2018-05-10T21:41:21.341Z,71.92
2018-05-10T21:43:49.828Z,71.84
2018-05-10T21:46:18.292Z,71.69
2018-05-10T21:48:46.780Z,72.51
2018-05-10T21:51:15.302Z,72.66
2018-05-10T21:53:43.777Z,72.52
2018-05-10T21:56:12.533Z,71.90
2018-05-10T21:58:41.031Z,71.42
2018-05-10T22:01:09.505Z,72.20
2018-05-10T22:03:37.952Z,70.77
2018-05-10T22:06:06.464Z,68.17
2018-05-10T22:08:34.953Z,69.09
2018-05-10T22:11:03.420Z,69.27
2018-05-10T22:13:31.897Z,69.97
2018-05-10T22:16:00.448Z,68.73
2018-05-10T22:18:29.003Z,68.64
2018-05-10T22:20:57.459Z,68.13
2018-05-10T22:23:25.924Z,67.18
2018-05-10T22:25:54.444Z,67.95
2018-05-10T22:28:22.892Z,68.40
2018-05-10T22:30:51.461Z,67.62
2018-05-10T22:33:19.951Z,65.82
2018-05-10T22:35:48.428Z,64.90
2018-05-10T22:38:16.965Z,64.03
2018-05-10T22:40:45.416Z,64.23
2018-05-10T22:43:13.904Z,64.68
2018-05-10T22:45:42.375Z,63.04
2018-05-10T22:48:10.857Z,63.20
2018-05-10T22:50:39.341Z,62.91
2018-05-10T22:53:07.814Z,62.95
2018-05-10T22:55:36.312Z,62.99
2018-05-10T22:58:04.801Z,62.95
2018-05-10T23:00:33.240Z,62.89
2018-05-10T23:03:01.756Z,62.83
2018-05-10T23:05:32.261Z,62.78
2018-05-10T23:08:00.728Z,62.28
2018-05-10T23:10:29.236Z,61.91
2018-05-10T23:12:57.692Z,62.07
2018-05-10T23:15:26.144Z,61.92
2018-05-10T23:17:54.633Z,61.95
2018-05-10T23:20:23.072Z,62.46
2018-05-10T23:22:51.573Z,62.59
2018-05-10T23:25:20.060Z,62.68
2018-05-10T23:27:48.581Z,62.54
2018-05-10T23:30:17.076Z,62.61
2018-05-10T23:32:45.584Z,62.19
2018-05-10T23:35:14.070Z,62.20
2018-05-10T23:37:42.517Z,62.31
2018-05-10T23:40:10.968Z,62.05
2018-05-10T23:42:39.476Z,62.52
2018-05-10T23:45:07.977Z,61.58
2018-05-10T23:47:36.458Z,61.32
2018-05-10T23:50:04.918Z,60.60
2018-05-10T23:52:33.414Z,61.83
2018-05-10T23:55:01.897Z,62.04
2018-05-10T23:57:30.373Z,60.88
2018-05-10T23:59:58.872Z,61.50
